createdAt,value
2018-07-17T00:00:08.180Z,20.69
2018-07-17T00:02:37.308Z,20.68
2018-07-17T00:05:07.680Z,20.62
2018-07-17T00:07:37.031Z,20.55
2018-07-17T00:10:06.563Z,20.47
2018-07-17T00:12:35.626Z,20.38
2018-07-17T00:15:04.971Z,20.39
2018-07-17T00:17:34.740Z,20.44
2018-07-17T00:20:03.828Z,20.40
2018-07-17T00:22:32.900Z,20.39
2018-07-17T00:25:01.984Z,20.32
2018-07-17T00:27:31.048Z,20.26
2018-07-17T00:30:00.129Z,20.20
2018-07-17T00:32:29.184Z,20.19
2018-07-17T00:34:58.285Z,20.14
2018-07-17T00:37:27.348Z,20.08
2018-07-17T00:39:56.468Z,20.00
2018-07-17T00:42:25.548Z,19.91
2018-07-17T00:44:54.621Z,19.85
2018-07-17T00:47:23.717Z,19.90
2018-07-17T00:49:52.776Z,19.97
2018-07-17T00:52:21.884Z,19.93
2018-07-17T00:54:50.948Z,19.90
2018-07-17T00:57:20.056Z,19.80
2018-07-17T00:59:49.152Z,19.69
2018-07-17T01:02:23.744Z,19.73
2018-07-17T01:04:58.108Z,19.71
2018-07-17T01:07:32.448Z,19.57
2018-07-17T01:10:06.836Z,19.37
2018-07-17T01:12:35.127Z,19.36
2018-07-17T01:15:07.368Z,19.34
2018-07-17T01:17:37.119Z,19.30
2018-07-17T01:20:06.400Z,19.19
2018-07-17T01:22:35.513Z,19.27
2018-07-17T01:25:04.643Z,19.38
2018-07-17T01:27:33.724Z,19.46
2018-07-17T01:30:02.789Z,19.46
2018-07-17T01:32:31.888Z,19.44
2018-07-17T01:35:00.996Z,19.40
2018-07-17T01:37:30.088Z,19.40
2018-07-17T01:39:59.163Z,19.19
2018-07-17T01:42:28.272Z,19.20
2018-07-17T01:44:57.333Z,19.12
2018-07-17T01:47:26.441Z,19.12
2018-07-17T01:49:55.532Z,19.07
2018-07-17T01:52:24.615Z,19.11
2018-07-17T01:54:53.684Z,19.09
2018-07-17T01:57:22.786Z,19.07
2018-07-17T01:59:51.867Z,19.08
2018-07-17T02:02:20.939Z,19.08
2018-07-17T02:04:50.069Z,19.12
2018-07-17T02:07:19.110Z,18.84
2018-07-17T02:09:48.188Z,18.60
2018-07-17T02:12:17.279Z,18.73
2018-07-17T02:14:46.387Z,18.81
2018-07-17T02:17:15.452Z,18.80
2018-07-17T02:19:44.559Z,18.82
2018-07-17T02:22:13.787Z,18.84
2018-07-17T02:24:42.872Z,18.85
2018-07-17T02:27:11.956Z,18.83
2018-07-17T02:29:41.036Z,18.82
2018-07-17T02:32:10.108Z,18.75
2018-07-17T02:34:39.196Z,18.67
2018-07-17T02:37:08.260Z,18.62
2018-07-17T02:39:37.362Z,18.42
2018-07-17T02:42:06.842Z,18.33
2018-07-17T02:44:35.940Z,18.30
2018-07-17T02:47:05.041Z,18.17
2018-07-17T02:49:34.152Z,18.15
2018-07-17T02:52:03.217Z,18.08
2018-07-17T02:54:32.316Z,18.02
2018-07-17T02:57:01.391Z,17.88
2018-07-17T02:59:30.500Z,17.83
2018-07-17T03:01:59.569Z,17.79
2018-07-17T03:04:28.661Z,17.91
2018-07-17T03:06:57.728Z,18.09
2018-07-17T03:09:26.820Z,18.21
2018-07-17T03:11:55.876Z,18.11
2018-07-17T03:14:24.991Z,18.00
2018-07-17T03:16:54.049Z,18.03
2018-07-17T03:19:23.149Z,18.08
2018-07-17T03:21:52.259Z,18.15
2018-07-17T03:24:21.324Z,18.20
2018-07-17T03:26:50.443Z,18.24
2018-07-17T03:29:19.535Z,18.22
2018-07-17T03:31:48.637Z,18.19
2018-07-17T03:34:17.723Z,18.22
2018-07-17T03:36:46.808Z,18.18
2018-07-17T03:39:15.876Z,18.17
2018-07-17T03:41:44.972Z,18.20
2018-07-17T03:44:14.076Z,18.20
2018-07-17T03:46:43.165Z,17.92
2018-07-17T03:49:12.232Z,17.72
2018-07-17T03:51:41.320Z,17.73
2018-07-17T03:54:10.408Z,17.87
2018-07-17T03:56:39.516Z,17.98
2018-07-17T03:59:08.604Z,18.09
2018-07-17T04:01:37.723Z,18.12
2018-07-17T04:04:06.786Z,18.23
2018-07-17T04:06:35.891Z,18.14
2018-07-17T04:09:06.356Z,18.16
2018-07-17T04:11:35.443Z,18.21
2018-07-17T04:14:04.548Z,18.34
2018-07-17T04:16:33.640Z,18.34
2018-07-17T04:19:02.731Z,18.38
2018-07-17T04:21:31.832Z,18.43
2018-07-17T04:24:00.908Z,18.54
2018-07-17T04:26:30.009Z,18.45
2018-07-17T04:28:59.752Z,18.44
2018-07-17T04:31:28.879Z,18.41
2018-07-17T04:33:57.948Z,18.39
2018-07-17T04:36:27.052Z,18.38
2018-07-17T04:38:56.167Z,18.35
2018-07-17T04:41:25.292Z,18.29
2018-07-17T04:43:54.380Z,18.33
2018-07-17T04:46:23.481Z,18.44
2018-07-17T04:48:52.603Z,18.39
2018-07-17T04:51:21.676Z,18.43
2018-07-17T04:53:50.968Z,18.49
2018-07-17T04:56:19.992Z,18.61
2018-07-17T04:58:49.672Z,18.72
2018-07-17T05:01:18.840Z,18.71
2018-07-17T05:03:47.951Z,18.74
2018-07-17T05:06:17.033Z,18.74
2018-07-17T05:08:46.149Z,18.65
2018-07-17T05:11:15.584Z,18.59
2018-07-17T05:13:44.752Z,18.71
2018-07-17T05:16:13.874Z,18.85
2018-07-17T05:18:43.008Z,18.93
2018-07-17T05:21:12.149Z,19.02
2018-07-17T05:23:41.217Z,19.22
2018-07-17T05:26:10.288Z,19.41
2018-07-17T05:28:39.392Z,19.57
2018-07-17T05:31:08.488Z,19.69
2018-07-17T05:33:37.593Z,19.82
2018-07-17T05:36:07.123Z,19.92
2018-07-17T05:38:36.206Z,20.10
2018-07-17T05:41:05.304Z,20.27
2018-07-17T05:43:34.399Z,20.39
2018-07-17T05:46:03.508Z,20.56
2018-07-17T05:48:32.591Z,20.72
2018-07-17T05:51:01.707Z,20.93
2018-07-17T05:53:30.792Z,21.13
2018-07-17T05:55:59.895Z,21.26
2018-07-17T05:58:29.023Z,21.45
2018-07-17T06:00:58.120Z,21.59
2018-07-17T06:03:27.339Z,21.86
2018-07-17T06:05:56.375Z,22.09
2018-07-17T06:08:26.279Z,22.27
2018-07-17T06:10:55.380Z,22.53
2018-07-17T06:13:24.488Z,22.66
2018-07-17T06:15:53.622Z,22.76
2018-07-17T06:18:22.671Z,22.94
2018-07-17T06:20:51.785Z,23.10
2018-07-17T06:23:20.867Z,23.25
2018-07-17T06:25:49.981Z,23.24
2018-07-17T06:28:19.056Z,23.29
2018-07-17T06:30:48.175Z,23.33
2018-07-17T06:33:17.538Z,23.54
2018-07-17T06:35:46.692Z,23.70
2018-07-17T06:38:15.787Z,23.78
2018-07-17T06:40:44.879Z,23.82
2018-07-17T06:43:13.961Z,23.82
2018-07-17T06:45:43.068Z,23.87
2018-07-17T06:48:12.160Z,23.87
2018-07-17T06:50:41.346Z,23.88
2018-07-17T06:53:10.462Z,23.92
2018-07-17T06:55:39.568Z,24.08
2018-07-17T06:58:09.517Z,24.17
2018-07-17T07:00:39.455Z,24.28
2018-07-17T07:03:08.594Z,24.35
2018-07-17T07:05:37.725Z,24.39
2018-07-17T07:08:06.874Z,24.55
2018-07-17T07:10:35.970Z,24.71
2018-07-17T07:13:05.131Z,24.82
2018-07-17T07:15:34.232Z,24.85
2018-07-17T07:18:03.384Z,24.83
2018-07-17T07:20:32.483Z,24.81
2018-07-17T07:23:01.614Z,24.78
2018-07-17T07:25:30.736Z,25.02
2018-07-17T07:27:59.904Z,24.93
2018-07-17T07:30:28.998Z,25.11
2018-07-17T07:32:58.128Z,25.17
2018-07-17T07:35:27.228Z,25.27
2018-07-17T07:37:56.356Z,25.53
2018-07-17T07:40:25.492Z,25.68
2018-07-17T07:42:54.701Z,25.79
2018-07-17T07:45:23.753Z,25.89
2018-07-17T07:47:53.740Z,25.89
2018-07-17T07:50:22.836Z,25.96
2018-07-17T07:52:51.974Z,26.02
2018-07-17T07:55:21.092Z,26.21
2018-07-17T07:57:50.569Z,26.38
2018-07-17T08:00:19.676Z,26.47
2018-07-17T08:02:48.788Z,26.49
2018-07-17T08:05:17.877Z,26.50
2018-07-17T08:07:47.015Z,26.42
2018-07-17T08:10:16.127Z,26.60
2018-07-17T08:12:45.197Z,26.80
2018-07-17T08:15:14.338Z,27.00
2018-07-17T08:17:43.911Z,26.95
2018-07-17T08:20:13.011Z,26.89
2018-07-17T08:22:42.135Z,26.97
2018-07-17T08:25:11.225Z,26.98
2018-07-17T08:27:40.317Z,27.09
2018-07-17T08:30:09.423Z,27.27
2018-07-17T08:32:38.515Z,27.38
2018-07-17T08:35:07.616Z,27.50
2018-07-17T08:37:36.696Z,27.51
2018-07-17T08:40:05.828Z,27.40
2018-07-17T08:42:34.922Z,27.55
2018-07-17T08:45:04.051Z,27.58
2018-07-17T08:47:33.135Z,27.62
2018-07-17T08:50:02.237Z,27.71
2018-07-17T08:52:31.328Z,27.78
2018-07-17T08:55:00.464Z,27.79
2018-07-17T08:57:29.555Z,27.92
2018-07-17T08:59:58.782Z,28.02
2018-07-17T09:02:27.861Z,28.04
2018-07-17T09:04:56.955Z,28.15
2018-07-17T09:07:26.049Z,28.13
2018-07-17T09:09:55.399Z,28.24
2018-07-17T09:12:24.536Z,28.40
2018-07-17T09:14:53.648Z,28.57
2018-07-17T09:17:22.720Z,28.62
2018-07-17T09:19:51.839Z,28.73
2018-07-17T09:22:20.915Z,28.70
2018-07-17T09:24:50.012Z,28.85
2018-07-17T09:27:19.116Z,28.92
2018-07-17T09:29:48.241Z,29.03
2018-07-17T09:32:17.346Z,29.16
2018-07-17T09:34:46.441Z,29.14
2018-07-17T09:37:15.528Z,29.07
2018-07-17T09:39:44.793Z,29.02
2018-07-17T09:42:13.888Z,28.98
2018-07-17T09:44:42.980Z,28.90
2018-07-17T09:47:12.095Z,29.00
2018-07-17T09:49:41.787Z,28.85
2018-07-17T09:52:10.880Z,28.73
2018-07-17T09:54:39.975Z,28.77
2018-07-17T09:57:09.304Z,28.89
2018-07-17T09:59:38.443Z,29.01
2018-07-17T10:02:12.950Z,29.23
2018-07-17T10:04:42.176Z,29.36
2018-07-17T10:07:11.245Z,29.33
2018-07-17T10:09:40.316Z,29.42
2018-07-17T10:12:09.568Z,29.50
2018-07-17T10:14:38.811Z,29.60
2018-07-17T10:17:08.144Z,29.59
2018-07-17T10:19:37.486Z,29.67
2018-07-17T10:22:06.576Z,29.73
2018-07-17T10:24:35.693Z,29.74
2018-07-17T10:27:05.028Z,29.72
2018-07-17T10:29:34.244Z,29.64
2018-07-17T10:32:04.076Z,29.68
2018-07-17T10:34:33.258Z,29.87
2018-07-17T10:37:02.358Z,30.05
2018-07-17T10:39:31.598Z,30.04
2018-07-17T10:42:00.827Z,30.37
2018-07-17T10:44:29.896Z,30.66
2018-07-17T10:47:05.320Z,30.41
2018-07-17T10:49:34.408Z,30.39
2018-07-17T10:52:03.516Z,30.46
2018-07-17T10:54:32.636Z,30.43
2018-07-17T10:57:01.760Z,30.47
2018-07-17T10:59:30.868Z,30.61
2018-07-17T11:01:59.963Z,30.47
2018-07-17T11:04:29.055Z,30.20
2018-07-17T11:06:58.157Z,30.26
2018-07-17T11:09:27.256Z,30.36
2018-07-17T11:11:56.324Z,30.44
2018-07-17T11:14:25.428Z,30.64
2018-07-17T11:16:54.527Z,30.75
2018-07-17T11:19:23.613Z,30.70
2018-07-17T11:21:52.684Z,30.70
2018-07-17T11:24:21.800Z,30.85
2018-07-17T11:26:50.904Z,30.92
2018-07-17T11:29:20.028Z,30.80
2018-07-17T11:31:49.113Z,30.88
2018-07-17T11:34:18.212Z,30.88
2018-07-17T11:36:47.300Z,30.61
2018-07-17T11:39:17.206Z,30.57
2018-07-17T11:41:46.292Z,30.53
2018-07-17T11:44:15.448Z,30.63
2018-07-17T11:46:44.515Z,30.83
2018-07-17T11:49:13.655Z,30.97
2018-07-17T11:51:42.740Z,31.17
2018-07-17T11:54:11.860Z,30.99
2018-07-17T11:56:40.932Z,31.04
2018-07-17T11:59:10.183Z,31.14
2018-07-17T12:01:39.168Z,31.13
2018-07-17T12:04:09.260Z,31.21
2018-07-17T12:06:38.347Z,31.05
2018-07-17T12:09:08.105Z,30.95
2018-07-17T12:11:37.176Z,30.89
2018-07-17T12:14:06.284Z,31.04
2018-07-17T12:16:35.420Z,30.99
2018-07-17T12:19:04.540Z,31.01
2018-07-17T12:21:33.648Z,31.08
2018-07-17T12:24:02.719Z,31.34
2018-07-17T12:26:31.812Z,31.52
2018-07-17T12:29:00.888Z,31.65
2018-07-17T12:31:30.037Z,31.73
2018-07-17T12:33:59.100Z,31.86
2018-07-17T12:36:28.219Z,31.97
2018-07-17T12:38:57.288Z,32.04
2018-07-17T12:41:26.419Z,31.95
2018-07-17T12:43:55.488Z,32.09
2018-07-17T12:46:24.596Z,32.08
2018-07-17T12:48:53.664Z,32.13
2018-07-17T12:51:22.779Z,32.22
2018-07-17T12:53:51.876Z,32.21
2018-07-17T12:56:21.021Z,32.10
2018-07-17T12:58:50.504Z,31.95
2018-07-17T13:01:19.618Z,31.67
2018-07-17T13:03:48.804Z,32.00
2018-07-17T13:06:17.888Z,32.27
2018-07-17T13:08:47.248Z,32.35
2018-07-17T13:11:16.341Z,32.20
2018-07-17T13:13:45.418Z,32.18
2018-07-17T13:16:14.551Z,32.38
2018-07-17T13:18:43.625Z,33.14
2018-07-17T13:21:12.732Z,32.66
2018-07-17T13:23:41.850Z,32.66
2018-07-17T13:26:10.940Z,32.58
2018-07-17T13:28:40.025Z,32.61
2018-07-17T13:31:09.135Z,32.58
2018-07-17T13:33:38.248Z,32.58
2018-07-17T13:36:07.423Z,32.34
2018-07-17T13:38:36.496Z,32.38
2018-07-17T13:41:05.633Z,32.35
2018-07-17T13:43:34.748Z,32.16
2018-07-17T13:46:04.072Z,32.01
2018-07-17T13:48:33.407Z,31.69
2018-07-17T13:51:02.479Z,31.80
2018-07-17T13:53:31.572Z,31.70
2018-07-17T13:56:00.651Z,31.59
2018-07-17T13:58:29.760Z,31.46
2018-07-17T14:00:58.836Z,31.43
2018-07-17T14:03:28.020Z,31.34
2018-07-17T14:05:57.711Z,31.36
2018-07-17T14:08:26.831Z,31.45
2018-07-17T14:10:55.889Z,31.66
2018-07-17T14:13:24.981Z,31.77
2018-07-17T14:15:54.048Z,31.85
2018-07-17T14:18:23.152Z,32.04
2018-07-17T14:20:52.251Z,32.24
2018-07-17T14:23:21.350Z,32.24
2018-07-17T14:25:50.412Z,32.34
2018-07-17T14:28:19.508Z,32.26
2018-07-17T14:30:48.604Z,32.31
2018-07-17T14:33:17.718Z,32.49
2018-07-17T14:35:46.803Z,32.50
2018-07-17T14:38:15.913Z,32.46
2018-07-17T14:40:44.992Z,32.36
2018-07-17T14:43:14.088Z,32.32
2018-07-17T14:45:43.163Z,32.47
2018-07-17T14:48:12.308Z,32.43
2018-07-17T14:50:41.336Z,32.48
2018-07-17T14:53:10.405Z,32.55
2018-07-17T14:55:39.588Z,32.50
2018-07-17T14:58:08.626Z,32.42
2018-07-17T15:00:37.749Z,32.51
2018-07-17T15:03:06.828Z,32.53
2018-07-17T15:05:35.941Z,32.57
2018-07-17T15:08:05.015Z,32.57
2018-07-17T15:10:34.112Z,32.50
2018-07-17T15:13:03.216Z,32.43
2018-07-17T15:15:32.367Z,32.33
2018-07-17T15:18:01.384Z,32.21
2018-07-17T15:20:30.481Z,32.05
2018-07-17T15:22:59.590Z,32.16
2018-07-17T15:25:28.691Z,32.07
2018-07-17T15:27:57.794Z,32.19
2018-07-17T15:30:26.868Z,32.33
2018-07-17T15:32:55.956Z,32.26
2018-07-17T15:35:25.101Z,32.28
2018-07-17T15:37:54.184Z,32.36
2018-07-17T15:40:23.316Z,32.27
2018-07-17T15:42:52.411Z,32.12
2018-07-17T15:45:21.535Z,32.12
2018-07-17T15:47:50.595Z,32.12
2018-07-17T15:50:19.685Z,32.01
2018-07-17T15:52:48.793Z,31.86
2018-07-17T15:55:17.905Z,31.81
2018-07-17T15:57:47.005Z,31.67
2018-07-17T16:00:16.152Z,31.61
2018-07-17T16:02:45.256Z,31.57
2018-07-17T16:05:14.341Z,31.52
2018-07-17T16:07:43.441Z,31.51
2018-07-17T16:10:12.531Z,31.48
2018-07-17T16:12:41.624Z,31.50
2018-07-17T16:15:10.700Z,31.58
2018-07-17T16:17:39.831Z,31.55
2018-07-17T16:20:09.269Z,31.53
2018-07-17T16:22:38.327Z,31.51
2018-07-17T16:25:07.646Z,31.48
2018-07-17T16:27:37.392Z,31.43
2018-07-17T16:30:07.271Z,31.30
2018-07-17T16:32:36.379Z,31.35
2018-07-17T16:35:05.483Z,31.41
2018-07-17T16:37:34.576Z,31.37
2018-07-17T16:40:03.717Z,31.42
2018-07-17T16:42:32.835Z,31.43
2018-07-17T16:45:01.913Z,31.41
2018-07-17T16:47:31.020Z,31.37
2018-07-17T16:50:00.092Z,31.39
2018-07-17T16:52:29.357Z,31.34
2018-07-17T16:54:58.461Z,31.24
2018-07-17T16:57:27.548Z,31.19
2018-07-17T16:59:56.668Z,31.07
2018-07-17T17:02:25.800Z,31.00
2018-07-17T17:04:54.932Z,30.95
2018-07-17T17:07:24.028Z,30.83
2018-07-17T17:09:53.264Z,30.84
2018-07-17T17:12:22.332Z,30.91
2018-07-17T17:14:51.451Z,30.95
2018-07-17T17:17:20.512Z,30.85
2018-07-17T17:19:49.616Z,30.58
2018-07-17T17:22:18.688Z,30.30
2018-07-17T17:24:47.813Z,30.20
2018-07-17T17:27:16.888Z,30.02
2018-07-17T17:29:45.981Z,29.87
2018-07-17T17:32:15.084Z,29.67
2018-07-17T17:34:44.184Z,29.61
2018-07-17T17:37:13.303Z,29.51
2018-07-17T17:39:42.444Z,29.42
2018-07-17T17:42:11.495Z,29.35
2018-07-17T17:44:40.584Z,29.29
2018-07-17T17:47:09.668Z,29.22
2018-07-17T17:49:38.880Z,29.12
2018-07-17T17:52:08.000Z,29.05
2018-07-17T17:54:37.124Z,29.01
2018-07-17T17:57:06.247Z,29.02
2018-07-17T17:59:35.370Z,29.03
2018-07-17T18:02:04.506Z,28.96
2018-07-17T18:04:33.798Z,28.98
2018-07-17T18:07:02.891Z,28.99
2018-07-17T18:09:31.983Z,28.92
2018-07-17T18:12:01.124Z,28.88
2018-07-17T18:14:30.333Z,28.91
2018-07-17T18:16:59.471Z,28.92
2018-07-17T18:19:28.540Z,28.87
2018-07-17T18:21:57.661Z,28.87
2018-07-17T18:24:26.795Z,28.84
2018-07-17T18:26:56.063Z,28.76
2018-07-17T18:29:25.106Z,28.70
2018-07-17T18:31:54.221Z,28.62
2018-07-17T18:34:23.317Z,28.39
2018-07-17T18:36:52.416Z,28.24
2018-07-17T18:39:21.540Z,27.94
2018-07-17T18:41:50.684Z,27.79
2018-07-17T18:44:19.740Z,27.68
2018-07-17T18:46:48.871Z,27.59
2018-07-17T18:49:17.980Z,27.52
2018-07-17T18:51:47.849Z,27.53
2018-07-17T18:54:16.916Z,27.47
2018-07-17T18:56:46.025Z,27.36
2018-07-17T18:59:15.115Z,27.21
2018-07-17T19:01:44.216Z,27.14
2018-07-17T19:04:13.337Z,27.03
2018-07-17T19:06:42.413Z,26.98
2018-07-17T19:09:11.524Z,26.94
2018-07-17T19:11:40.760Z,26.75
2018-07-17T19:14:09.832Z,26.53
2018-07-17T19:16:39.787Z,26.41
2018-07-17T19:19:08.859Z,26.37
2018-07-17T19:21:37.972Z,26.40
2018-07-17T19:24:07.065Z,26.41
2018-07-17T19:26:36.148Z,26.34
2018-07-17T19:29:05.282Z,26.21
2018-07-17T19:31:34.320Z,26.24
2018-07-17T19:34:03.428Z,26.23
2018-07-17T19:36:32.555Z,26.20
2018-07-17T19:39:01.606Z,26.16
2018-07-17T19:41:30.704Z,26.12
2018-07-17T19:43:59.823Z,26.08
2018-07-17T19:46:28.896Z,26.09
2018-07-17T19:48:58.024Z,26.05
2018-07-17T19:51:27.135Z,26.04
2018-07-17T19:53:56.220Z,26.02
2018-07-17T19:56:25.485Z,25.94
2018-07-17T19:58:54.609Z,25.91
2018-07-17T20:01:23.716Z,25.80
2018-07-17T20:03:52.820Z,25.69
2018-07-17T20:06:21.884Z,25.65
2018-07-17T20:08:51.005Z,25.64
2018-07-17T20:11:20.088Z,25.56
2018-07-17T20:13:49.206Z,25.50
2018-07-17T20:16:18.290Z,25.46
2018-07-17T20:18:47.387Z,25.41
2018-07-17T20:21:16.476Z,25.43
2018-07-17T20:23:45.565Z,25.47
2018-07-17T20:26:14.623Z,25.42
2018-07-17T20:28:43.724Z,25.41
2018-07-17T20:31:12.843Z,25.43
2018-07-17T20:33:41.966Z,25.46
2018-07-17T20:36:11.031Z,25.46
2018-07-17T20:38:40.100Z,25.55
2018-07-17T20:41:09.196Z,25.54
2018-07-17T20:43:38.285Z,25.53
2018-07-17T20:46:07.400Z,25.43
2018-07-17T20:48:36.460Z,25.28
2018-07-17T20:51:05.563Z,25.32
2018-07-17T20:53:35.271Z,25.26
2018-07-17T20:56:04.384Z,25.09
2018-07-17T20:58:33.550Z,25.15
2018-07-17T21:01:02.619Z,25.19
2018-07-17T21:03:32.000Z,25.02
2018-07-17T21:06:01.144Z,24.95
2018-07-17T21:08:30.213Z,24.90
2018-07-17T21:10:59.451Z,24.83
2018-07-17T21:13:28.508Z,24.88
2018-07-17T21:15:57.615Z,24.89
2018-07-17T21:18:26.672Z,24.88
2018-07-17T21:20:55.795Z,24.64
2018-07-17T21:23:24.883Z,24.59
2018-07-17T21:25:53.975Z,24.61
2018-07-17T21:28:23.176Z,24.45
2018-07-17T21:30:52.288Z,24.36
2018-07-17T21:33:21.387Z,24.35
2018-07-17T21:35:50.462Z,24.39
2018-07-17T21:38:19.592Z,24.37
2018-07-17T21:40:48.688Z,24.34
2018-07-17T21:43:17.964Z,24.29
2018-07-17T21:45:47.039Z,24.33
2018-07-17T21:48:16.156Z,24.26
2018-07-17T21:50:45.236Z,24.20
2018-07-17T21:53:14.378Z,24.11
2018-07-17T21:55:43.537Z,24.04
2018-07-17T21:58:12.685Z,24.02
2018-07-17T22:00:41.781Z,23.98
2018-07-17T22:03:10.916Z,23.96
2018-07-17T22:05:40.039Z,23.89
2018-07-17T22:08:09.065Z,23.82
2018-07-17T22:10:38.140Z,23.80
2018-07-17T22:13:07.248Z,23.70
2018-07-17T22:15:36.319Z,23.66
2018-07-17T22:18:05.674Z,23.63
2018-07-17T22:20:34.746Z,23.58
2018-07-17T22:23:03.887Z,23.62
2018-07-17T22:25:32.980Z,23.58
2018-07-17T22:28:02.152Z,23.51
2018-07-17T22:30:31.173Z,23.51
2018-07-17T22:33:00.279Z,23.48
2018-07-17T22:35:29.475Z,23.47
2018-07-17T22:37:58.668Z,23.38
2018-07-17T22:40:28.033Z,23.32
2018-07-17T22:42:57.176Z,23.30
2018-07-17T22:45:26.524Z,23.22
2018-07-17T22:47:55.701Z,23.28
2018-07-17T22:50:24.828Z,23.22
2018-07-17T22:52:54.099Z,23.21
2018-07-17T22:55:23.223Z,23.22
2018-07-17T22:57:52.431Z,23.19
2018-07-17T23:00:21.584Z,23.14
2018-07-17T23:02:50.720Z,23.17
2018-07-17T23:05:19.837Z,22.95
2018-07-17T23:07:48.939Z,22.87
2018-07-17T23:10:18.028Z,22.77
2018-07-17T23:12:47.106Z,22.49
2018-07-17T23:15:16.338Z,22.43
2018-07-17T23:17:45.539Z,22.51
2018-07-17T23:20:14.691Z,22.64
2018-07-17T23:22:57.039Z,22.65
2018-07-17T23:25:27.365Z,22.60
2018-07-17T23:27:57.152Z,22.64
2018-07-17T23:30:26.277Z,22.65
2018-07-17T23:32:55.407Z,22.56
2018-07-17T23:35:25.211Z,22.53
2018-07-17T23:37:54.601Z,22.52
2018-07-17T23:40:23.872Z,22.49
2018-07-17T23:42:52.980Z,22.46
2018-07-17T23:45:22.096Z,22.49
2018-07-17T23:47:51.199Z,22.45
2018-07-17T23:50:20.288Z,22.41
2018-07-17T23:52:49.397Z,22.32
2018-07-17T23:55:18.492Z,22.28
2018-07-17T23:57:47.724Z,22.27
